Rondo — UBMF — position and weather

sailwx.info

Track history (hours):
 
Tides and Currents Weather Stations Pressure Air Temp Water Temp Dewpoint Dewpoint Depression Visibility Wind Speed Wind Dir Waves Ship Positions

Rondo

Last reported at 2018-Jun-15 12:55 UTC. Time now 2018-Jun-20 03:28 UTC.
Position N 45°39' E 036°53'.

Length 108 m; draft 3.5 m.

Type: Cargo ship. MMSI: 273447120.

Date/timePositionNaut miles runAvg speedWind from/ knotsBaromVisibWave heightAir tempDewpointWater temp
2018-Jun-15 12:55N 45°39' E 036°53'4 7.8
2018-Jun-15 12:27N 45°36' E 036°51'4 7.9
2018-Jun-15 12:00N 45°32' E 036°50'4 7.8
2018-Jun-15 11:30N 45°29' E 036°47'4 8.0
2018-Jun-15 11:00N 45°26' E 036°43'4 8.0
2018-Jun-15 10:30N 45°22' E 036°40'4 7.7
2018-Jun-15 10:00N 45°20' E 036°36'4 8.2
2018-Jun-15 09:30N 45°19' E 036°31'3 5.9
2018-Jun-15 09:00N 45°16' E 036°28'3 6.4
2018-Jun-15 08:30N 45°13' E 036°28'37 7.9
2018-Jun-15 03:45N 44°36' E 036°23'2 7.5
2018-Jun-15 03:30N 44°34' E 036°22'9 7.4
2018-Jun-15 02:17N 44°26' E 036°16'24 7.2
2018-Jun-14 22:58N 44°05' E 036°02'7 7.5
2018-Jun-14 22:05N 43°59' E 035°58'1 7.7
2018-Jun-14 21:59N 43°58' E 035°57'128 7.4
2018-Jun-14 04:39N 42°05' E 034°33'3 6.9
2018-Jun-14 04:13N 42°06' E 034°29'4 7.3
2018-Jun-14 03:44N 42°06' E 034°24'6 7.6
2018-Jun-14 02:58N 42°06' E 034°16'15 7.4
2018-Jun-14 00:57N 42°06' E 033°56'3 7.4
2018-Jun-14 00:30N 42°06' E 033°52'4 7.5
2018-Jun-14 00:00N 42°06' E 033°47'4 7.6
2018-Jun-13 23:30N 42°06' E 033°42'4 7.6
2018-Jun-13 23:00N 42°05' E 033°36'4 7.8
2018-Jun-13 22:29N 42°05' E 033°31'4 7.7
2018-Jun-13 21:59N 42°05' E 033°26'4 7.8
2018-Jun-13 21:30N 42°05' E 033°21'4 7.7
2018-Jun-13 20:56N 42°04' E 033°15'5 7.7
2018-Jun-13 20:14N 42°02' E 033°08'2 7.6
2018-Jun-13 19:59N 42°02' E 033°06'6 7.6
2018-Jun-13 19:09N 41°59' E 032°58'3 7.7
2018-Jun-13 18:49N 41°58' E 032°55'2 7.8
2018-Jun-13 18:30N 41°57' E 032°52'5 7.9
2018-Jun-13 17:53N 41°56' E 032°45'3 8.0
2018-Jun-13 17:30N 41°55' E 032°42'4 8.4
2018-Jun-13 17:00N 41°53' E 032°36'4 8.2
2018-Jun-13 16:29N 41°52' E 032°31'4 8.2
2018-Jun-13 16:00N 41°50' E 032°26'4 8.0
2018-Jun-13 15:30N 41°49' E 032°21'4 7.9
2018-Jun-13 15:00N 41°48' E 032°16'4 8.0
2018-Jun-13 14:30N 41°46' E 032°11'4 7.6
2018-Jun-13 14:00N 41°44' E 032°07'4 7.3
2018-Jun-13 13:28N 41°41' E 032°03'5 7.1
2018-Jun-13 12:46N 41°39' E 031°57'2 7.3
2018-Jun-13 12:30N 41°38' E 031°55'4 7.5
2018-Jun-13 11:58N 41°36' E 031°50'4 7.4
2018-Jun-13 11:26N 41°34' E 031°46'3 7.3
2018-Jun-13 11:00N 41°32' E 031°42'4 7.3
2018-Jun-13 10:26N 41°30' E 031°38'3 7.6
2018-Jun-13 10:00N 41°28' E 031°34'4 7.6
2018-Jun-13 09:29N 41°26' E 031°29'  
Track history (hours):
 
Tides and Currents Weather Stations Pressure Air Temp Water Temp Dewpoint Dewpoint Depression Visibility Wind Speed Wind Dir Waves Ship Positions

Rondo

Last reported at 2018-Jun-15 12:55 UTC. Time now 2018-Jun-20 03:28 UTC.
Position N 45°39' E 036°53'.

Length 108 m; draft 3.5 m.

Type: Cargo ship. MMSI: 273447120.

Date/timePositionNaut miles runAvg speedWind from/ knotsBaromVisibWave heightAir tempDewpointWater temp
2018-Jun-15 12:55N 45°39' E 036°53'4 7.8
2018-Jun-15 12:27N 45°36' E 036°51'4 7.9
2018-Jun-15 12:00N 45°32' E 036°50'4 7.8
2018-Jun-15 11:30N 45°29' E 036°47'4 8.0
2018-Jun-15 11:00N 45°26' E 036°43'4 8.0
2018-Jun-15 10:30N 45°22' E 036°40'4 7.7
2018-Jun-15 10:00N 45°20' E 036°36'4 8.2
2018-Jun-15 09:30N 45°19' E 036°31'3 5.9
2018-Jun-15 09:00N 45°16' E 036°28'3 6.4
2018-Jun-15 08:30N 45°13' E 036°28'37 7.9
2018-Jun-15 03:45N 44°36' E 036°23'2 7.5
2018-Jun-15 03:30N 44°34' E 036°22'9 7.4
2018-Jun-15 02:17N 44°26' E 036°16'24 7.2
2018-Jun-14 22:58N 44°05' E 036°02'7 7.5
2018-Jun-14 22:05N 43°59' E 035°58'1 7.7
2018-Jun-14 21:59N 43°58' E 035°57'128 7.4
2018-Jun-14 04:39N 42°05' E 034°33'3 6.9
2018-Jun-14 04:13N 42°06' E 034°29'4 7.3
2018-Jun-14 03:44N 42°06' E 034°24'6 7.6
2018-Jun-14 02:58N 42°06' E 034°16'15 7.4
2018-Jun-14 00:57N 42°06' E 033°56'3 7.4
2018-Jun-14 00:30N 42°06' E 033°52'4 7.5
2018-Jun-14 00:00N 42°06' E 033°47'4 7.6
2018-Jun-13 23:30N 42°06' E 033°42'4 7.6
2018-Jun-13 23:00N 42°05' E 033°36'4 7.8
2018-Jun-13 22:29N 42°05' E 033°31'4 7.7
2018-Jun-13 21:59N 42°05' E 033°26'4 7.8
2018-Jun-13 21:30N 42°05' E 033°21'4 7.7
2018-Jun-13 20:56N 42°04' E 033°15'5 7.7
2018-Jun-13 20:14N 42°02' E 033°08'2 7.6
2018-Jun-13 19:59N 42°02' E 033°06'6 7.6
2018-Jun-13 19:09N 41°59' E 032°58'3 7.7
2018-Jun-13 18:49N 41°58' E 032°55'2 7.8
2018-Jun-13 18:30N 41°57' E 032°52'5 7.9
2018-Jun-13 17:53N 41°56' E 032°45'3 8.0
2018-Jun-13 17:30N 41°55' E 032°42'4 8.4
2018-Jun-13 17:00N 41°53' E 032°36'4 8.2
2018-Jun-13 16:29N 41°52' E 032°31'4 8.2
2018-Jun-13 16:00N 41°50' E 032°26'4 8.0
2018-Jun-13 15:30N 41°49' E 032°21'4 7.9
2018-Jun-13 15:00N 41°48' E 032°16'4 8.0
2018-Jun-13 14:30N 41°46' E 032°11'4 7.6
2018-Jun-13 14:00N 41°44' E 032°07'4 7.3
2018-Jun-13 13:28N 41°41' E 032°03'5 7.1
2018-Jun-13 12:46N 41°39' E 031°57'2 7.3
2018-Jun-13 12:30N 41°38' E 031°55'4 7.5
2018-Jun-13 11:58N 41°36' E 031°50'4 7.4
2018-Jun-13 11:26N 41°34' E 031°46'3 7.3
2018-Jun-13 11:00N 41°32' E 031°42'4 7.3
2018-Jun-13 10:26N 41°30' E 031°38'3 7.6
2018-Jun-13 10:00N 41°28' E 031°34'4 7.6
2018-Jun-13 09:29N 41°26' E 031°29'  

Dump ship's entire track history